Date,TemperatureHighF,TemperatureAvgF,TemperatureLowF,DewpointHighF,DewpointAvgF,DewpointLowF,HumidityHigh,HumidityAvg,HumidityLow,PressureMaxIn,PressureMinIn,WindSpeedMaxMPH,WindSpeedAvgMPH,GustSpeedMaxMPH,PrecipitationSumIn
2013-2-1,56.1,50.9,47.1,50.0,47.7,43.0,96,89,77,30.14,29.75,18,5,29,0.00
2013-2-2,53.1,49.2,43.9,51.0,47.2,38.0,98,93,78,29.74,29.25,24,10,32,0.10
2013-2-3,46.0,42.3,38.3,40.0,36.4,31.0,94,80,64,29.94,29.32,17,7,26,0.19
2013-2-4,48.6,42.6,36.0,38.0,29.3,16.0,80,62,28,30.15,29.95,9,4,19,0.00
2013-2-5,47.7,45.6,42.8,47.0,41.8,27.0,98,87,53,30.12,29.78,13,4,16,0.02
2013-2-6,48.3,45.5,40.1,47.0,39.8,32.0,98,81,60,29.79,29.49,14,5,25,0.08
2013-2-7,45.6,40.0,36.9,39.0,36.0,32.0,94,85,67,29.54,29.43,15,5,19,0.45
2013-2-8,45.4,39.8,34.1,33.0,30.0,27.0,86,69,55,29.72,29.54,20,6,20,0.00
2013-2-9,41.5,36.5,32.8,32.0,26.1,21.0,89,67,48,29.87,29.72,16,4,18,0.00
2013-2-10,41.1,36.1,31.0,26.0,18.7,12.0,74,51,32,29.95,29.84,11,3,15,0.00
2013-2-11,46.4,40.9,35.6,46.0,35.4,16.0,98,83,44,29.95,29.53,27,10,38,1.27
2013-2-12,47.3,42.5,39.6,42.0,40.5,38.0,98,92,81,29.68,29.55,7,3,13,0.31
2013-2-13,47.1,42.5,38.2,40.0,35.3,32.0,92,76,64,29.79,29.64,13,5,15,0.00
2013-2-14,49.2,43.9,39.7,38.0,35.2,33.0,82,72,54,29.97,29.80,10,4,14,0.00
2013-2-15,49.9,43.2,37.1,38.0,34.9,31.0,83,73,59,29.98,29.94,7,3,10,0.00
2013-2-16,50.6,44.2,38.0,41.0,36.6,34.0,88,76,55,30.04,29.96,9,3,12,0.00
2013-2-17,48.4,43.2,39.6,41.0,38.2,35.0,89,83,74,30.04,29.96,7,4,15,0.15
2013-2-18,47.6,41.6,37.3,40.0,36.8,33.0,90,83,72,29.98,29.93,7,2,11,0.00
2013-2-19,48.0,41.5,34.6,37.0,32.4,28.0,88,71,47,29.99,29.93,6,3,10,0.00
2013-2-20,48.7,41.9,35.3,38.0,34.3,30.0,87,75,58,29.98,29.90,7,2,10,0.00
2013-2-21,50.5,43.7,36.4,42.0,36.5,32.0,91,76,56,29.90,29.67,8,3,12,0.04
2013-2-22,48.4,45.7,43.6,47.0,44.0,42.0,98,94,86,29.67,29.43,19,6,28,0.39
2013-2-23,49.9,44.4,39.3,49.0,42.4,35.0,98,93,75,29.61,29.40,32,9,53,1.27
2013-2-24,42.8,39.7,36.1,41.0,34.1,30.0,98,81,61,29.93,29.62,15,4,20,0.04
2013-2-25,40.4,37.1,33.7,36.0,34.2,31.0,97,89,77,30.04,29.92,14,4,20,1.07
2013-2-26,47.5,42.2,37.3,40.0,36.8,34.0,92,81,70,30.11,30.02,8,3,10,0.16
2013-2-27,50.3,44.8,40.5,36.0,33.2,29.0,82,65,52,30.19,30.09,13,5,18,0.00
2013-2-28,52.8,46.8,41.7,41.0,36.4,30.0,81,67,58,30.21,30.11,10,4,13,0.00